City Of Vicksburg — WDC2660 — position and weather

sailwx.info

Track history (hours):
 
Tides and Currents Weather Stations Pressure Air Temp Water Temp Dewpoint Dewpoint Depression Visibility Wind Speed Wind Dir Waves Ship Positions

City Of Vicksburg

Owner: Kirby Inland Marine LP, Houston, TX. More information available from US FCC via Universal Licensing System and Coast Guard Vessel Documentation Center.

Last reported at 2016-Sep-27 00:13 UTC. Time now 2016-Sep-27 05:18 UTC.
Position N 31°58' W 091°11'.

Length 50 m; draft 2.9 m.

Type: Ship (hazmat cat A). MMSI: 366996120.

Date/timePositionNaut miles runAvg speedWind from/ knotsBaromVisibWave heightAir tempDewpointWater temp
2016-Sep-27 00:13N 31°58' W 091°11'  
2016-Sep-23 17:13N 31°59' W 091°06'6 6.3
2016-Sep-23 16:15N 32°05' W 091°05'3 3.7
2016-Sep-23 15:33N 32°08' W 091°04'13 6.3
2016-Sep-23 13:33N 32°18' W 090°55'4 0.9
2016-Sep-23 09:33N 32°21' W 090°58'6 1.9
2016-Sep-23 06:33N 32°26' W 091°02'13 6.5
2016-Sep-23 04:33N 32°37' W 091°09'8 6.9
2016-Sep-23 03:26N 32°43' W 091°03'6 6.6
2016-Sep-23 02:33N 32°46' W 091°09'  
Track history (hours):
 
Tides and Currents Weather Stations Pressure Air Temp Water Temp Dewpoint Dewpoint Depression Visibility Wind Speed Wind Dir Waves Ship Positions

City Of Vicksburg

Owner: Kirby Inland Marine LP, Houston, TX. More information available from US FCC via Universal Licensing System and Coast Guard Vessel Documentation Center.

Last reported at 2016-Sep-27 00:13 UTC. Time now 2016-Sep-27 05:18 UTC.
Position N 31°58' W 091°11'.

Length 50 m; draft 2.9 m.

Type: Ship (hazmat cat A). MMSI: 366996120.

Date/timePositionNaut miles runAvg speedWind from/ knotsBaromVisibWave heightAir tempDewpointWater temp
2016-Sep-27 00:13N 31°58' W 091°11'  
2016-Sep-23 17:13N 31°59' W 091°06'6 6.3
2016-Sep-23 16:15N 32°05' W 091°05'3 3.7
2016-Sep-23 15:33N 32°08' W 091°04'13 6.3
2016-Sep-23 13:33N 32°18' W 090°55'4 0.9
2016-Sep-23 09:33N 32°21' W 090°58'6 1.9
2016-Sep-23 06:33N 32°26' W 091°02'13 6.5
2016-Sep-23 04:33N 32°37' W 091°09'8 6.9
2016-Sep-23 03:26N 32°43' W 091°03'6 6.6
2016-Sep-23 02:33N 32°46' W 091°09'  

Dump ship's entire track history